sensor_id;sensor_type;location;lat;lon;timestamp;pressure;altitude;pressure_sealevel;temperature;humidity
54870;BME280;40756;-37.950;145.008;2024-01-15T00:02:07;101762.67;;;25.21;42.87
54870;BME280;40756;-37.950;145.008;2024-01-15T00:04:38;101761.80;;;25.19;42.18
54870;BME280;40756;-37.950;145.008;2024-01-15T00:07:08;101760.32;;;25.34;42.00
54870;BME280;40756;-37.950;145.008;2024-01-15T00:09:37;101763.95;;;25.09;42.72
54870;BME280;40756;-37.950;145.008;2024-01-15T00:12:07;101762.97;;;25.24;42.52
54870;BME280;40756;-37.950;145.008;2024-01-15T00:14:37;101761.98;;;25.39;43.09
54870;BME280;40756;-37.950;145.008;2024-01-15T00:17:06;101759.30;;;25.26;42.46
54870;BME280;40756;-37.950;145.008;2024-01-15T00:19:36;101760.12;;;24.71;43.38
54870;BME280;40756;-37.950;145.008;2024-01-15T00:22:06;101756.03;;;24.98;43.60
54870;BME280;40756;-37.950;145.008;2024-01-15T00:24:35;101753.51;;;24.86;43.70
54870;BME280;40756;-37.950;145.008;2024-01-15T00:27:04;101752.06;;;24.73;43.96
54870;BME280;40756;-37.950;145.008;2024-01-15T00:29:34;101747.63;;;24.62;43.74
54870;BME280;40756;-37.950;145.008;2024-01-15T00:32:04;101743.79;;;24.58;44.39
54870;BME280;40756;-37.950;145.008;2024-01-15T00:34:34;101744.10;;;24.68;43.80
54870;BME280;40756;-37.950;145.008;2024-01-15T00:37:03;101738.52;;;24.96;43.92
54870;BME280;40756;-37.950;145.008;2024-01-15T00:39:33;101736.04;;;24.86;43.80
54870;BME280;40756;-37.950;145.008;2024-01-15T00:42:03;101733.14;;;25.24;43.42
54870;BME280;40756;-37.950;145.008;2024-01-15T00:44:37;101731.45;;;24.89;42.97
54870;BME280;40756;-37.950;145.008;2024-01-15T00:47:07;101729.61;;;25.07;42.88
54870;BME280;40756;-37.950;145.008;2024-01-15T00:49:41;101726.00;;;25.15;43.44
54870;BME280;40756;-37.950;145.008;2024-01-15T00:52:15;101717.59;;;24.59;43.16
54870;BME280;40756;-37.950;145.008;2024-01-15T00:54:46;101712.90;;;25.41;42.11
54870;BME280;40756;-37.950;145.008;2024-01-15T00:57:18;101711.73;;;25.63;40.92
54870;BME280;40756;-37.950;145.008;2024-01-15T00:59:53;101710.06;;;26.00;41.01
54870;BME280;40756;-37.950;145.008;2024-01-15T01:02:23;101710.14;;;25.53;41.38
54870;BME280;40756;-37.950;145.008;2024-01-15T01:04:59;101706.35;;;26.25;41.05
54870;BME280;40756;-37.950;145.008;2024-01-15T01:07:29;101702.50;;;26.47;39.98
54870;BME280;40756;-37.950;145.008;2024-01-15T01:10:01;101694.47;;;26.02;39.96
54870;BME280;40756;-37.950;145.008;2024-01-15T01:12:31;101692.76;;;26.22;39.79
54870;BME280;40756;-37.950;145.008;2024-01-15T01:15:09;101692.80;;;25.74;39.84
54870;BME280;40756;-37.950;145.008;2024-01-15T01:17:41;101683.51;;;26.28;39.63
54870;BME280;40756;-37.950;145.008;2024-01-15T01:20:12;101680.54;;;26.37;39.37
54870;BME280;40756;-37.950;145.008;2024-01-15T01:22:42;101680.87;;;26.76;38.09
54870;BME280;40756;-37.950;145.008;2024-01-15T01:25:13;101680.60;;;26.61;39.39
54870;BME280;40756;-37.950;145.008;2024-01-15T01:27:43;101677.89;;;26.23;38.42
54870;BME280;40756;-37.950;145.008;2024-01-15T01:30:15;101673.00;;;26.31;39.10
54870;BME280;40756;-37.950;145.008;2024-01-15T01:32:45;101671.37;;;26.29;37.76
54870;BME280;40756;-37.950;145.008;2024-01-15T01:35:16;101669.64;;;26.51;38.68
54870;BME280;40756;-37.950;145.008;2024-01-15T01:37:50;101663.35;;;26.12;39.01
54870;BME280;40756;-37.950;145.008;2024-01-15T01:40:23;101657.03;;;27.25;38.45
54870;BME280;40756;-37.950;145.008;2024-01-15T01:42:55;101653.36;;;26.77;39.39
54870;BME280;40756;-37.950;145.008;2024-01-15T01:45:25;101648.24;;;27.50;38.64
54870;BME280;40756;-37.950;145.008;2024-01-15T01:48:02;101645.96;;;27.49;38.30
54870;BME280;40756;-37.950;145.008;2024-01-15T01:50:37;101642.41;;;26.07;39.84
54870;BME280;40756;-37.950;145.008;2024-01-15T01:53:13;101636.41;;;26.74;39.36
54870;BME280;40756;-37.950;145.008;2024-01-15T01:55:45;101633.35;;;27.15;38.96
54870;BME280;40756;-37.950;145.008;2024-01-15T01:58:16;101628.90;;;26.31;39.57
54870;BME280;40756;-37.950;145.008;2024-01-15T02:00:52;101627.31;;;27.32;39.16
54870;BME280;40756;-37.950;145.008;2024-01-15T02:03:22;101622.83;;;27.15;39.76
54870;BME280;40756;-37.950;145.008;2024-01-15T02:05:54;101619.59;;;27.48;39.21
54870;BME280;40756;-37.950;145.008;2024-01-15T02:08:26;101618.59;;;28.01;38.66
54870;BME280;40756;-37.950;145.008;2024-01-15T02:11:00;101610.59;;;27.69;38.56
54870;BME280;40756;-37.950;145.008;2024-01-15T02:13:32;101607.99;;;27.52;38.81
54870;BME280;40756;-37.950;145.008;2024-01-15T02:16:03;101606.10;;;28.33;37.57
54870;BME280;40756;-37.950;145.008;2024-01-15T02:18:42;101601.52;;;28.20;38.00
54870;BME280;40756;-37.950;145.008;2024-01-15T02:21:13;101599.74;;;28.37;37.53
54870;BME280;40756;-37.950;145.008;2024-01-15T02:23:44;101592.47;;;29.32;36.71
54870;BME280;40756;-37.950;145.008;2024-01-15T02:26:21;101588.75;;;29.53;36.59
54870;BME280;40756;-37.950;145.008;2024-01-15T02:28:52;101585.73;;;28.88;36.50
54870;BME280;40756;-37.950;145.008;2024-01-15T02:31:28;101586.98;;;28.09;37.13
54870;BME280;40756;-37.950;145.008;2024-01-15T02:33:59;101581.63;;;29.04;37.13
54870;BME280;40756;-37.950;145.008;2024-01-15T02:36:33;101572.77;;;29.64;36.10
54870;BME280;40756;-37.950;145.008;2024-01-15T02:39:06;101571.49;;;28.92;36.32
54870;BME280;40756;-37.950;145.008;2024-01-15T02:41:39;101568.83;;;29.60;35.29
54870;BME280;40756;-37.950;145.008;2024-01-15T02:44:09;101562.39;;;29.56;35.54
54870;BME280;40756;-37.950;145.008;2024-01-15T02:46:55;101557.79;;;28.67;36.60
54870;BME280;40756;-37.950;145.008;2024-01-15T02:49:26;101553.66;;;29.30;37.18
54870;BME280;40756;-37.950;145.008;2024-01-15T02:51:59;101550.49;;;29.34;36.85
54870;BME280;40756;-37.950;145.008;2024-01-15T02:54:29;101550.43;;;29.48;36.49
54870;BME280;40756;-37.950;145.008;2024-01-15T02:57:05;101546.53;;;30.25;35.79
54870;BME280;40756;-37.950;145.008;2024-01-15T02:59:36;101548.44;;;29.95;35.78
54870;BME280;40756;-37.950;145.008;2024-01-15T03:02:11;101542.44;;;29.66;35.88
54870;BME280;40756;-37.950;145.008;2024-01-15T03:04:47;101538.59;;;30.28;34.73
54870;BME280;40756;-37.950;145.008;2024-01-15T03:07:20;101539.84;;;30.57;34.13
54870;BME280;40756;-37.950;145.008;2024-01-15T03:09:51;101534.59;;;30.95;33.91
54870;BME280;40756;-37.950;145.008;2024-01-15T03:12:21;101529.62;;;30.98;33.44
54870;BME280;40756;-37.950;145.008;2024-01-15T03:14:52;101525.81;;;30.29;34.86
54870;BME280;40756;-37.950;145.008;2024-01-15T03:17:23;101523.92;;;31.07;33.89
54870;BME280;40756;-37.950;145.008;2024-01-15T03:19:53;101520.43;;;31.44;33.51
54870;BME280;40756;-37.950;145.008;2024-01-15T03:22:29;101512.62;;;31.16;33.07
54870;BME280;40756;-37.950;145.008;2024-01-15T03:24:58;101508.63;;;31.16;32.74
54870;BME280;40756;-37.950;145.008;2024-01-15T03:27:29;101507.63;;;31.26;32.61
54870;BME280;40756;-37.950;145.008;2024-01-15T03:29:59;101501.44;;;31.70;31.59
54870;BME280;40756;-37.950;145.008;2024-01-15T03:32:29;101498.60;;;31.52;32.02
54870;BME280;40756;-37.950;145.008;2024-01-15T03:35:00;101493.65;;;31.56;31.69
54870;BME280;40756;-37.950;145.008;2024-01-15T03:37:30;101494.18;;;30.57;32.63
54870;BME280;40756;-37.950;145.008;2024-01-15T03:40:08;101488.64;;;30.76;32.86
54870;BME280;40756;-37.950;145.008;2024-01-15T03:42:38;101484.98;;;30.37;32.59
54870;BME280;40756;-37.950;145.008;2024-01-15T03:45:09;101480.34;;;31.70;32.30
54870;BME280;40756;-37.950;145.008;2024-01-15T03:47:40;101478.29;;;30.55;32.14
54870;BME280;40756;-37.950;145.008;2024-01-15T03:50:11;101472.03;;;29.47;33.35
54870;BME280;40756;-37.950;145.008;2024-01-15T03:52:42;101466.61;;;31.56;32.29
54870;BME280;40756;-37.950;145.008;2024-01-15T03:55:13;101464.08;;;30.49;30.80
54870;BME280;40756;-37.950;145.008;2024-01-15T03:57:43;101460.00;;;30.47;31.82
54870;BME280;40756;-37.950;145.008;2024-01-15T04:00:15;101461.91;;;31.47;30.25
54870;BME280;40756;-37.950;145.008;2024-01-15T04:02:52;101460.88;;;31.05;31.01
54870;BME280;40756;-37.950;145.008;2024-01-15T04:05:26;101454.55;;;31.82;30.33
54870;BME280;40756;-37.950;145.008;2024-01-15T04:07:56;101452.80;;;31.77;30.52
54870;BME280;40756;-37.950;145.008;2024-01-15T04:10:26;101447.43;;;29.62;32.58
54870;BME280;40756;-37.950;145.008;2024-01-15T04:12:56;101446.87;;;31.08;30.92
54870;BME280;40756;-37.950;145.008;2024-01-15T04:15:28;101438.93;;;30.83;31.60
54870;BME280;40756;-37.950;145.008;2024-01-15T04:17:59;101433.93;;;31.31;30.87
54870;BME280;40756;-37.950;145.008;2024-01-15T04:20:31;101430.76;;;31.61;30.75
54870;BME280;40756;-37.950;145.008;2024-01-15T04:23:02;101422.03;;;31.58;30.49
54870;BME280;40756;-37.950;145.008;2024-01-15T04:25:33;101414.50;;;32.45;31.21
54870;BME280;40756;-37.950;145.008;2024-01-15T04:28:07;101412.51;;;31.17;31.23
54870;BME280;40756;-37.950;145.008;2024-01-15T04:30:40;101405.35;;;32.27;30.21
54870;BME280;40756;-37.950;145.008;2024-01-15T04:33:10;101399.10;;;31.52;30.90
54870;BME280;40756;-37.950;145.008;2024-01-15T04:35:40;101393.30;;;33.51;28.90
54870;BME280;40756;-37.950;145.008;2024-01-15T04:38:11;101388.05;;;32.58;28.82
54870;BME280;40756;-37.950;145.008;2024-01-15T04:40:46;101386.56;;;31.84;29.90
54870;BME280;40756;-37.950;145.008;2024-01-15T04:43:16;101387.01;;;31.70;29.93
54870;BME280;40756;-37.950;145.008;2024-01-15T04:45:47;101383.42;;;32.27;28.63
54870;BME280;40756;-37.950;145.008;2024-01-15T04:48:16;101379.20;;;31.49;30.28
54870;BME280;40756;-37.950;145.008;2024-01-15T04:50:46;101377.20;;;30.89;30.23
54870;BME280;40756;-37.950;145.008;2024-01-15T04:53:17;101363.00;;;31.96;29.47
54870;BME280;40756;-37.950;145.008;2024-01-15T04:55:47;101369.76;;;31.24;30.15
54870;BME280;40756;-37.950;145.008;2024-01-15T04:58:16;101362.80;;;31.48;29.16
54870;BME280;40756;-37.950;145.008;2024-01-15T05:00:46;101356.46;;;31.14;29.54
54870;BME280;40756;-37.950;145.008;2024-01-15T05:03:16;101351.69;;;31.43;29.94
54870;BME280;40756;-37.950;145.008;2024-01-15T05:05:46;101349.92;;;30.92;29.49
54870;BME280;40756;-37.950;145.008;2024-01-15T05:08:15;101340.77;;;31.60;29.38
54870;BME280;40756;-37.950;145.008;2024-01-15T05:10:44;101335.39;;;31.29;29.98
54870;BME280;40756;-37.950;145.008;2024-01-15T05:13:13;101326.36;;;31.95;29.13
54870;BME280;40756;-37.950;145.008;2024-01-15T05:15:42;101318.24;;;32.43;28.75
54870;BME280;40756;-37.950;145.008;2024-01-15T05:18:11;101313.00;;;32.25;28.78
54870;BME280;40756;-37.950;145.008;2024-01-15T05:20:41;101314.17;;;31.31;30.13
54870;BME280;40756;-37.950;145.008;2024-01-15T05:23:10;101307.51;;;32.24;29.32
54870;BME280;40756;-37.950;145.008;2024-01-15T05:25:39;101311.59;;;31.47;29.94
54870;BME280;40756;-37.950;145.008;2024-01-15T05:28:08;101308.77;;;31.70;30.26
54870;BME280;40756;-37.950;145.008;2024-01-15T05:30:37;101303.86;;;31.60;29.70
54870;BME280;40756;-37.950;145.008;2024-01-15T05:33:07;101298.27;;;32.50;28.61
54870;BME280;40756;-37.950;145.008;2024-01-15T05:35:36;101297.24;;;32.72;28.10
54870;BME280;40756;-37.950;145.008;2024-01-15T05:38:05;101291.69;;;32.13;28.72
54870;BME280;40756;-37.950;145.008;2024-01-15T05:40:34;101286.27;;;32.59;29.00
54870;BME280;40756;-37.950;145.008;2024-01-15T05:43:04;101288.40;;;29.35;31.17
54870;BME280;40756;-37.950;145.008;2024-01-15T05:45:35;101282.81;;;31.11;30.46
54870;BME280;40756;-37.950;145.008;2024-01-15T05:48:05;101278.62;;;30.42;31.16
54870;BME280;40756;-37.950;145.008;2024-01-15T05:50:35;101281.19;;;31.35;31.07
54870;BME280;40756;-37.950;145.008;2024-01-15T05:53:04;101269.86;;;31.21;30.67
54870;BME280;40756;-37.950;145.008;2024-01-15T05:55:36;101268.90;;;29.56;32.07
54870;BME280;40756;-37.950;145.008;2024-01-15T05:58:06;101275.17;;;31.01;31.17
54870;BME280;40756;-37.950;145.008;2024-01-15T06:00:35;101268.71;;;30.63;30.89
54870;BME280;40756;-37.950;145.008;2024-01-15T06:03:04;101274.84;;;30.30;31.60
54870;BME280;40756;-37.950;145.008;2024-01-15T06:05:34;101272.02;;;30.19;30.80
54870;BME280;40756;-37.950;145.008;2024-01-15T06:08:04;101271.17;;;30.50;31.54
54870;BME280;40756;-37.950;145.008;2024-01-15T06:10:33;101269.96;;;29.85;32.62
54870;BME280;40756;-37.950;145.008;2024-01-15T06:13:02;101263.16;;;29.48;32.29
54870;BME280;40756;-37.950;145.008;2024-01-15T06:15:31;101258.16;;;30.02;31.61
54870;BME280;40756;-37.950;145.008;2024-01-15T06:18:00;101258.67;;;30.08;32.07
54870;BME280;40756;-37.950;145.008;2024-01-15T06:20:30;101259.30;;;30.85;31.93
54870;BME280;40756;-37.950;145.008;2024-01-15T06:22:59;101244.95;;;28.99;32.37
54870;BME280;40756;-37.950;145.008;2024-01-15T06:25:28;101245.10;;;31.31;32.04
54870;BME280;40756;-37.950;145.008;2024-01-15T06:27:57;101253.65;;;30.03;32.24
54870;BME280;40756;-37.950;145.008;2024-01-15T06:30:26;101243.56;;;30.06;32.60
54870;BME280;40756;-37.950;145.008;2024-01-15T06:32:56;101241.64;;;29.31;33.63
54870;BME280;40756;-37.950;145.008;2024-01-15T06:35:25;101239.58;;;29.68;32.56
54870;BME280;40756;-37.950;145.008;2024-01-15T06:37:55;101227.39;;;29.99;33.21
54870;BME280;40756;-37.950;145.008;2024-01-15T06:40:24;101227.38;;;30.25;33.31
54870;BME280;40756;-37.950;145.008;2024-01-15T06:42:53;101228.40;;;29.58;33.18
54870;BME280;40756;-37.950;145.008;2024-01-15T06:45:23;101223.43;;;29.41;33.26
54870;BME280;40756;-37.950;145.008;2024-01-15T06:47:52;101219.28;;;29.64;33.36
54870;BME280;40756;-37.950;145.008;2024-01-15T06:50:22;101217.16;;;30.31;33.06
54870;BME280;40756;-37.950;145.008;2024-01-15T06:52:51;101219.59;;;27.34;35.43
54870;BME280;40756;-37.950;145.008;2024-01-15T06:55:21;101210.18;;;29.52;34.48
54870;BME280;40756;-37.950;145.008;2024-01-15T06:57:51;101203.03;;;29.23;34.01
54870;BME280;40756;-37.950;145.008;2024-01-15T07:00:21;101203.94;;;28.88;34.85
54870;BME280;40756;-37.950;145.008;2024-01-15T07:02:50;101202.66;;;28.07;35.54
54870;BME280;40756;-37.950;145.008;2024-01-15T07:05:20;101201.00;;;28.01;35.44
54870;BME280;40756;-37.950;145.008;2024-01-15T07:07:49;101196.68;;;29.21;34.57
54870;BME280;40756;-37.950;145.008;2024-01-15T07:10:19;101196.38;;;29.40;33.71
54870;BME280;40756;-37.950;145.008;2024-01-15T07:12:49;101200.67;;;28.21;35.67
54870;BME280;40756;-37.950;145.008;2024-01-15T07:15:18;101192.82;;;28.13;35.38
54870;BME280;40756;-37.950;145.008;2024-01-15T07:17:48;101196.88;;;28.29;35.49
54870;BME280;40756;-37.950;145.008;2024-01-15T07:20:18;101195.67;;;27.92;35.28
54870;BME280;40756;-37.950;145.008;2024-01-15T07:22:47;101190.12;;;28.76;34.92
54870;BME280;40756;-37.950;145.008;2024-01-15T07:25:17;101193.35;;;28.45;34.33
54870;BME280;40756;-37.950;145.008;2024-01-15T07:27:47;101189.65;;;28.74;34.93
54870;BME280;40756;-37.950;145.008;2024-01-15T07:30:16;101200.60;;;27.64;35.56
54870;BME280;40756;-37.950;145.008;2024-01-15T07:32:45;101199.73;;;28.00;35.73
54870;BME280;40756;-37.950;145.008;2024-01-15T07:35:14;101191.64;;;27.44;36.13
54870;BME280;40756;-37.950;145.008;2024-01-15T07:37:45;101195.01;;;27.88;35.71
54870;BME280;40756;-37.950;145.008;2024-01-15T07:40:15;101193.71;;;28.31;35.28
54870;BME280;40756;-37.950;145.008;2024-01-15T07:42:44;101195.70;;;28.00;36.00
54870;BME280;40756;-37.950;145.008;2024-01-15T07:45:13;101195.58;;;29.41;34.84
54870;BME280;40756;-37.950;145.008;2024-01-15T07:47:43;101196.53;;;29.16;34.98
54870;BME280;40756;-37.950;145.008;2024-01-15T07:50:12;101197.25;;;29.73;33.79
54870;BME280;40756;-37.950;145.008;2024-01-15T07:52:42;101199.77;;;27.88;34.69
54870;BME280;40756;-37.950;145.008;2024-01-15T07:55:11;101199.75;;;28.42;34.55
54870;BME280;40756;-37.950;145.008;2024-01-15T07:57:40;101197.69;;;27.91;35.25
54870;BME280;40756;-37.950;145.008;2024-01-15T08:00:11;101194.49;;;27.86;36.01
54870;BME280;40756;-37.950;145.008;2024-01-15T08:02:40;101194.23;;;28.67;34.99
54870;BME280;40756;-37.950;145.008;2024-01-15T08:05:10;101196.23;;;27.40;36.35
54870;BME280;40756;-37.950;145.008;2024-01-15T08:07:39;101192.73;;;28.52;35.30
54870;BME280;40756;-37.950;145.008;2024-01-15T08:10:09;101190.26;;;27.95;35.45
54870;BME280;40756;-37.950;145.008;2024-01-15T08:12:38;101200.22;;;27.02;36.66
54870;BME280;40756;-37.950;145.008;2024-01-15T08:15:08;101201.61;;;26.86;36.74
54870;BME280;40756;-37.950;145.008;2024-01-15T08:17:37;101199.38;;;25.88;37.98
54870;BME280;40756;-37.950;145.008;2024-01-15T08:20:07;101198.84;;;26.82;36.60
54870;BME280;40756;-37.950;145.008;2024-01-15T08:22:36;101197.69;;;26.71;37.11
54870;BME280;40756;-37.950;145.008;2024-01-15T08:25:06;101205.36;;;26.92;37.74
54870;BME280;40756;-37.950;145.008;2024-01-15T08:27:36;101204.18;;;27.41;36.56
54870;BME280;40756;-37.950;145.008;2024-01-15T08:30:06;101206.54;;;26.65;37.40
54870;BME280;40756;-37.950;145.008;2024-01-15T08:32:35;101210.82;;;25.43;38.84
54870;BME280;40756;-37.950;145.008;2024-01-15T08:35:05;101209.18;;;26.53;38.04
54870;BME280;40756;-37.950;145.008;2024-01-15T08:37:35;101214.11;;;25.85;38.86
54870;BME280;40756;-37.950;145.008;2024-01-15T08:40:05;101210.09;;;25.29;39.34
54870;BME280;40756;-37.950;145.008;2024-01-15T08:42:34;101206.91;;;25.71;39.50
54870;BME280;40756;-37.950;145.008;2024-01-15T08:45:04;101202.32;;;26.66;38.44
54870;BME280;40756;-37.950;145.008;2024-01-15T08:47:34;101200.21;;;25.05;40.12
54870;BME280;40756;-37.950;145.008;2024-01-15T08:50:04;101201.09;;;26.47;38.47
54870;BME280;40756;-37.950;145.008;2024-01-15T08:52:34;101205.99;;;24.99;39.84
54870;BME280;40756;-37.950;145.008;2024-01-15T08:55:04;101203.99;;;25.41;40.16
54870;BME280;40756;-37.950;145.008;2024-01-15T08:57:33;101203.17;;;25.48;40.16
54870;BME280;40756;-37.950;145.008;2024-01-15T09:00:02;101207.12;;;24.63;40.55
54870;BME280;40756;-37.950;145.008;2024-01-15T09:02:32;101202.73;;;25.66;39.72
54870;BME280;40756;-37.950;145.008;2024-01-15T09:05:02;101196.75;;;25.52;40.24
54870;BME280;40756;-37.950;145.008;2024-01-15T09:07:31;101195.19;;;25.38;39.28
54870;BME280;40756;-37.950;145.008;2024-01-15T09:10:00;101189.43;;;25.65;39.11
54870;BME280;40756;-37.950;145.008;2024-01-15T09:12:30;101186.27;;;25.72;39.31
54870;BME280;40756;-37.950;145.008;2024-01-15T09:14:59;101178.37;;;25.13;39.83
54870;BME280;40756;-37.950;145.008;2024-01-15T09:17:28;101182.91;;;25.43;39.37
54870;BME280;40756;-37.950;145.008;2024-01-15T09:19:57;101181.56;;;25.12;40.08
54870;BME280;40756;-37.950;145.008;2024-01-15T09:22:27;101179.74;;;24.38;41.23
54870;BME280;40756;-37.950;145.008;2024-01-15T09:24:56;101174.63;;;25.25;40.13
54870;BME280;40756;-37.950;145.008;2024-01-15T09:27:26;101175.07;;;24.44;41.46
54870;BME280;40756;-37.950;145.008;2024-01-15T09:29:55;101172.41;;;24.36;41.80
54870;BME280;40756;-37.950;145.008;2024-01-15T09:32:24;101176.99;;;24.94;41.32
54870;BME280;40756;-37.950;145.008;2024-01-15T09:34:53;101183.76;;;24.77;40.87
54870;BME280;40756;-37.950;145.008;2024-01-15T09:37:23;101185.99;;;24.74;40.61
54870;BME280;40756;-37.950;145.008;2024-01-15T09:39:52;101193.57;;;25.33;40.11
54870;BME280;40756;-37.950;145.008;2024-01-15T09:42:22;101190.48;;;24.06;41.43
54870;BME280;40756;-37.950;145.008;2024-01-15T09:44:54;101198.95;;;24.83;41.03
54870;BME280;40756;-37.950;145.008;2024-01-15T09:47:24;101198.05;;;24.43;41.24
54870;BME280;40756;-37.950;145.008;2024-01-15T09:49:53;101197.00;;;25.10;40.53
54870;BME280;40756;-37.950;145.008;2024-01-15T09:52:22;101192.63;;;23.66;42.71
54870;BME280;40756;-37.950;145.008;2024-01-15T09:54:53;101195.82;;;24.03;41.82
54870;BME280;40756;-37.950;145.008;2024-01-15T09:57:23;101193.50;;;24.33;41.79
54870;BME280;40756;-37.950;145.008;2024-01-15T09:59:53;101190.60;;;24.28;41.58
54870;BME280;40756;-37.950;145.008;2024-01-15T10:02:23;101188.62;;;23.75;41.91
54870;BME280;40756;-37.950;145.008;2024-01-15T10:04:53;101183.29;;;24.19;41.89
54870;BME280;40756;-37.950;145.008;2024-01-15T10:07:23;101179.69;;;23.13;43.40
54870;BME280;40756;-37.950;145.008;2024-01-15T10:09:53;101181.21;;;23.88;42.65
54870;BME280;40756;-37.950;145.008;2024-01-15T10:12:23;101187.28;;;23.99;42.10
54870;BME280;40756;-37.950;145.008;2024-01-15T10:14:52;101185.87;;;22.72;44.07
54870;BME280;40756;-37.950;145.008;2024-01-15T10:17:23;101186.61;;;23.61;42.97
54870;BME280;40756;-37.950;145.008;2024-01-15T10:19:53;101188.33;;;23.41;42.85
54870;BME280;40756;-37.950;145.008;2024-01-15T10:22:22;101189.14;;;24.06;42.20
54870;BME280;40756;-37.950;145.008;2024-01-15T10:24:52;101184.48;;;22.85;44.18
54870;BME280;40756;-37.950;145.008;2024-01-15T10:27:22;101182.82;;;23.51;43.41
54870;BME280;40756;-37.950;145.008;2024-01-15T10:29:51;101179.74;;;23.34;43.97
54870;BME280;40756;-37.950;145.008;2024-01-15T10:32:20;101177.99;;;23.71;43.34
54870;BME280;40756;-37.950;145.008;2024-01-15T10:34:54;101180.76;;;22.73;44.86
54870;BME280;40756;-37.950;145.008;2024-01-15T10:37:25;101176.94;;;22.56;45.10
54870;BME280;40756;-37.950;145.008;2024-01-15T10:39:54;101173.89;;;21.94;46.08
54870;BME280;40756;-37.950;145.008;2024-01-15T10:42:24;101170.13;;;23.00;44.64
54870;BME280;40756;-37.950;145.008;2024-01-15T10:44:53;101168.48;;;22.78;44.79
54870;BME280;40756;-37.950;145.008;2024-01-15T10:47:23;101169.79;;;22.86;44.81
54870;BME280;40756;-37.950;145.008;2024-01-15T10:49:53;101172.79;;;22.44;45.66
54870;BME280;40756;-37.950;145.008;2024-01-15T10:52:24;101168.47;;;22.77;44.91
54870;BME280;40756;-37.950;145.008;2024-01-15T10:54:54;101164.43;;;22.16;45.85
54870;BME280;40756;-37.950;145.008;2024-01-15T10:57:24;101163.25;;;22.82;45.32
54870;BME280;40756;-37.950;145.008;2024-01-15T10:59:55;101164.15;;;22.07;46.54
54870;BME280;40756;-37.950;145.008;2024-01-15T11:02:25;101159.53;;;22.85;46.06
54870;BME280;40756;-37.950;145.008;2024-01-15T11:04:55;101162.24;;;22.41;45.88
54870;BME280;40756;-37.950;145.008;2024-01-15T11:07:26;101171.37;;;22.85;45.68
54870;BME280;40756;-37.950;145.008;2024-01-15T11:09:55;101180.30;;;22.20;46.09
54870;BME280;40756;-37.950;145.008;2024-01-15T11:12:24;101185.00;;;22.26;46.55
54870;BME280;40756;-37.950;145.008;2024-01-15T11:15:02;101187.91;;;22.71;45.25
54870;BME280;40756;-37.950;145.008;2024-01-15T11:17:59;101188.80;;;22.68;45.42
54870;BME280;40756;-37.950;145.008;2024-01-15T11:20:29;101189.25;;;22.63;45.28
54870;BME280;40756;-37.950;145.008;2024-01-15T11:22:58;101190.96;;;23.44;44.44
54870;BME280;40756;-37.950;145.008;2024-01-15T11:25:36;101195.61;;;22.45;45.89
54870;BME280;40756;-37.950;145.008;2024-01-15T11:28:07;101193.29;;;23.38;44.63
54870;BME280;40756;-37.950;145.008;2024-01-15T11:30:36;101199.09;;;22.82;45.06
54870;BME280;40756;-37.950;145.008;2024-01-15T11:33:06;101200.87;;;22.83;45.11
54870;BME280;40756;-37.950;145.008;2024-01-15T11:35:51;101195.10;;;23.21;44.57
54870;BME280;40756;-37.950;145.008;2024-01-15T11:38:29;101190.65;;;22.98;45.06
54870;BME280;40756;-37.950;145.008;2024-01-15T11:41:00;101190.10;;;23.17;44.37
54870;BME280;40756;-37.950;145.008;2024-01-15T11:43:30;101185.88;;;23.06;44.83
54870;BME280;40756;-37.950;145.008;2024-01-15T11:46:03;101187.25;;;22.52;45.79
54870;BME280;40756;-37.950;145.008;2024-01-15T11:48:43;101194.99;;;22.75;45.65
54870;BME280;40756;-37.950;145.008;2024-01-15T11:51:13;101194.23;;;22.98;45.03
54870;BME280;40756;-37.950;145.008;2024-01-15T11:53:49;101191.32;;;22.45;45.53
54870;BME280;40756;-37.950;145.008;2024-01-15T11:56:24;101187.12;;;22.08;46.65
54870;BME280;40756;-37.950;145.008;2024-01-15T11:58:53;101180.97;;;22.31;46.15
54870;BME280;40756;-37.950;145.008;2024-01-15T12:01:23;101176.41;;;22.50;46.01
54870;BME280;40756;-37.950;145.008;2024-01-15T12:03:52;101175.24;;;22.87;45.52
54870;BME280;40756;-37.950;145.008;2024-01-15T12:06:23;101178.51;;;22.72;45.78
54870;BME280;40756;-37.950;145.008;2024-01-15T12:09:06;101177.39;;;22.43;46.11
54870;BME280;40756;-37.950;145.008;2024-01-15T12:11:37;101174.51;;;22.70;45.73
54870;BME280;40756;-37.950;145.008;2024-01-15T12:14:09;101172.55;;;21.83;47.37
54870;BME280;40756;-37.950;145.008;2024-01-15T12:16:38;101170.96;;;22.89;46.58
54870;BME280;40756;-37.950;145.008;2024-01-15T12:19:08;101171.71;;;22.12;47.43
54870;BME280;40756;-37.950;145.008;2024-01-15T12:21:45;101171.79;;;22.57;46.25
54870;BME280;40756;-37.950;145.008;2024-01-15T12:24:14;101166.35;;;22.83;45.74
54870;BME280;40756;-37.950;145.008;2024-01-15T12:26:46;101162.32;;;23.52;45.17
54870;BME280;40756;-37.950;145.008;2024-01-15T12:29:15;101161.19;;;22.39;46.94
54870;BME280;40756;-37.950;145.008;2024-01-15T12:31:49;101167.36;;;22.55;46.13
54870;BME280;40756;-37.950;145.008;2024-01-15T12:34:19;101166.77;;;22.82;45.69
54870;BME280;40756;-37.950;145.008;2024-01-15T12:36:48;101171.27;;;22.77;46.09
54870;BME280;40756;-37.950;145.008;2024-01-15T12:39:19;101168.44;;;22.63;45.87